Trempealeau, WI (54661)

18:51 CST le 22 novembre 2014 (GMT -0600)
Holmen | Change Station
CLOSE
Current Station
Stations météorologiques personnelles
Location: Holmen, WI
Altitude: 705 ft
Stations météo à proximité

Alt. 705 ft 43.96 °N, 91.26 °W | Updated 4 seconds ago

Brouillard
Brouillard
38.5 ° F
Paraît 38 ° F
N
0.0
Vent Variable Vent de Est
Gusts 0.0 mph

Aujourd'hui
Haut(e) -- | Bas -- ° F
--% Risque de précip.
Hier
Haut(e) -- | Bas -- ° F
Precip. -- pouce
7:09 AM 4:33 PM
Nouvelle lune, 0% visible
Pression 29.71 pouce
Visibilité 1.2 Miles terrestres
Nuages Couvert 300 ft
Refroidissement éolien 38 ° F
Point de rosée 36 ° F
Humidité 90%
Précipitations 0.05 pouce
Profondeur de la couche neigeuse Non disponible.
UV 0 sur 12
Pollen .10 sur 12
Qualité de l'air Non disponible.
Flu Activity Non disponible.
SPECI KLSE 230000Z 14003KT 1 1/4SM BR OVC003 04/04 A2971 RMK AO2 T00440039

More Conditions Fewer Conditions

Pression 29.71 pouce
Visibilité 1.2 Miles terrestres
Nuages Couvert 300 ft
Refroidissement éolien 38 ° F
Point de rosée 36 ° F
Humidité 90%
Précipitations 0.05 pouce
Profondeur de la couche neigeuse Non disponible.
UV 0 sur 12
Pollen .10 sur 12
Qualité de l'air Non disponible.
Flu Activity Non disponible.
SPECI KLSE 230000Z 14003KT 1 1/4SM BR OVC003 04/04 A2971 RMK AO2 T00440039

More Conditions Fewer Conditions

10-Day Weather Forecast

Almanac

Astronomie

Nov. 22, 2014 Lever Coucher
Temps réel
Crépuscule civil
Crépuscule nautique
Crépuscule astronomique
Lune
Durée de lumière visible
Longueur du jour
Tomorrow will be .
, % of the Moon is Illuminated

Extrêmes aujourd'hui

State Highs State Lows

Community

WunderPhotos

Upload Photos

1,772,938 Photos téléchargées !

WunderBlogs® & News

Nearby

Qualité de l'air

  Qualité de l'air Indice de la qualité de l'air Polluant
Not available.

Épaisseur de neige

Station Depth Altitude

Activité sismique

Ville Distance Mag. Time & Date
Minimum magnitude displayed is 2.5.

Températures des eaux côtières

Lieu Température

Stations météo à proximité